Language selection

My Weather Profile Weather Topics  | 

West Brevoort - northern half: Past 24 Hour Conditions

 

Mary's Harbour

10:30 AM NST 30 November 2022
Disclaimer

This table is a summary of hourly weather conditions for the past 24 hours.
Please note that these observations might not always be representative of weather conditions over their associated marine area.

Date / Time
(NST)
Wind(knots) Conditions Visibility(km) Pressure(kPa) Air tempC) Relative humidity(%) Dew pointC) Wind Chill
30 November 2022
10:30 WNW 10 gust 15 Sunny 16 102.7 -8 67 -13 -15
9:30 WNW 10 Sunny 16 102.6 -9 70 -14 -16
8:30 W 5 Sunny 16 102.5 -10 75 -14 -15
7:30 W 7 Clear 16 102.4 -10 73 -14 -16
6:30 W 10 gust 17 Clear 16 102.3 -9 71 -14 -17
5:30 W 12 gust 17 Mostly Cloudy 16 102.1 -9 70 -14 -17
4:30 WNW 10 gust 16 Mainly Clear 16 102.0 -9 70 -13 -16
3:30 WNW 12 gust 20 Partly Cloudy 16 101.8 -9 70 -13 -17
2:30 WNW 13 gust 21 Cloudy 16 101.7 -9 71 -14 -18
1:30 WNW 18 gust 26 Clear 16 101.6 -10 71 -14 -20
0:30 WNW 12 gust 22 Clear 16 101.5 -10 71 -14 -18
29 November 2022
23:30 WNW 12 gust 18 Clear 16 101.4 -10 72 -15 -19
22:30 W 9 Clear 16 101.4 -11 73 -15 -19
21:30 W 10 Clear 15 101.4 -11 73 -15 -19
20:30 W 8 Cloudy 16 101.3 -11 71 -15 -17
19:30 W 8 Mostly Cloudy 16 101.3 -11 71 -15 -18
18:30 WNW 16 gust 22 Mainly Clear 16 101.2 -10 68 -15 -20
17:30 WNW 13 gust 19 Cloudy 16 101.1 -9 68 -14 -18
16:30 W 13 gust 21 Light Snow 16 101.0 -8 67 -13 -16
15:30 WNW 8 Light Snow 16 100.9 -7 69 -12 -13
14:30 WNW 16 gust 23 Light Snow 16 100.7 -7 65 -12 -15
13:30 WNW 17 gust 29 Light Snow 16 100.6 -6 67 -12 -15
12:30 WNW 19 gust 27 Light Snow 16 100.5 -7 69 -11 -16
11:30 WNW 18 gust 25 Light Snow 16 100.4 -7 71 -11 -16
10:30 WNW 16 gust 22 Sunny 16 100.4 -8 75 -11 -17

Zoom-in to make a selection

Map of Atlantic - Labrador marine weather areas Kangiqsualujjuaq Airport Cape Kakkiviak Cape Kiglapait Cartwright Airport CFB Goose Bay Hopedale Mary's Harbour Nain Airport Makkovik Airport Saglek Tukialik Bay
Legend:
buoy Buoy
land station Land Station

Atlantic - Labrador Area

Another Region

What we are doing

Date modified: